KAST/AST METAR and TAF weather

Enter ICAO airport designator
Station Type Date Time Source
KAST METAR 2019/12/14 05:58 UTC NOAA

KAST 140558Z AUTO 12003KT 3SM -RA BR SCT009 BKN021 OVC046 04/04 A3002 RMK AO2 P0000 T00440039


Station Type Date Time Source
KAST Decoded METAR 2019/12/14 05:58 UTC NOAA

PORT OF ASTORIA AIRPORT, OR, United States (KAST) 46-09N 123-53W 3M
Dec 14, 2019 - 12:58 AM EST / 2019.12.14 0558 UTC
Wind: from the ESE (120 degrees) at 3 MPH (3 KT):0
Visibility: 3 mile(s):0
Sky conditions: overcast
Weather: light rain; mist
Precipitation last hour: A trace
Temperature: 39.9 F (4.4 C)
Dew Point: 39.0 F (3.9 C)
Relative Humidity: 96%
Pressure (altimeter): 30.02 in. Hg (1016 hPa)
ob: KAST 140558Z AUTO 12003KT 3SM -RA BR SCT009 BKN021 OVC046 04/04 A3002 RMK AO2 P0000 T00440039
cycle: 6

Station Type Date Time Source
KAST TAF 2019/12/14 06:33 UTC NOAA

TAF KAST 140529Z 1406/1506 VRB02KT 1/2SM FG BKN005 OVC012
TEMPO 1406/1410 2SM BR SCT005 OVC012
FM141500 12003KT 3SM BR SCT008 OVC013
FM141700 16005KT P6SM VCSH SCT016 BKN030
FM150200 00000KT 5SM -SHRA BKN035 OVC060

Example: see airport list